sensor_id;sensor_type;location;lat;lon;timestamp;P1;durP1;ratioP1;P2;durP2;ratioP2
45232;SDS011;30969;51.052;17.056;2023-04-30T04:55:11;15.05;;;10.35;;
45232;SDS011;30969;51.052;17.056;2023-04-30T05:00:14;15.30;;;11.45;;
45232;SDS011;30969;51.052;17.056;2023-04-30T05:05:19;15.52;;;9.70;;
45232;SDS011;30969;51.052;17.056;2023-04-30T05:10:24;13.40;;;9.30;;
45232;SDS011;30969;51.052;17.056;2023-04-30T05:15:27;11.98;;;8.55;;
45232;SDS011;30969;51.052;17.056;2023-04-30T05:20:31;12.88;;;7.03;;
45232;SDS011;30969;51.052;17.056;2023-04-30T05:25:36;10.90;;;7.70;;
45232;SDS011;30969;51.052;17.056;2023-04-30T05:30:40;10.90;;;7.82;;
45232;SDS011;30969;51.052;17.056;2023-04-30T05:35:44;13.35;;;7.75;;
45232;SDS011;30969;51.052;17.056;2023-04-30T05:40:48;13.15;;;7.15;;
45232;SDS011;30969;51.052;17.056;2023-04-30T05:45:52;11.00;;;7.45;;
45232;SDS011;30969;51.052;17.056;2023-04-30T05:50:55;11.90;;;7.15;;
45232;SDS011;30969;51.052;17.056;2023-04-30T05:56:00;11.88;;;7.60;;
45232;SDS011;30969;51.052;17.056;2023-04-30T06:01:04;16.60;;;8.00;;
45232;SDS011;30969;51.052;17.056;2023-04-30T06:06:11;15.35;;;9.20;;
45232;SDS011;30969;51.052;17.056;2023-04-30T06:11:16;9.98;;;7.00;;
45232;SDS011;30969;51.052;17.056;2023-04-30T06:16:20;8.23;;;6.07;;
45232;SDS011;30969;51.052;17.056;2023-04-30T06:21:24;13.25;;;6.90;;
45232;SDS011;30969;51.052;17.056;2023-04-30T06:26:29;10.57;;;7.60;;
45232;SDS011;30969;51.052;17.056;2023-04-30T06:31:32;9.63;;;6.60;;
45232;SDS011;30969;51.052;17.056;2023-04-30T06:36:36;8.77;;;6.90;;
45232;SDS011;30969;51.052;17.056;2023-04-30T06:41:41;18.73;;;6.35;;
45232;SDS011;30969;51.052;17.056;2023-04-30T06:46:45;11.32;;;6.38;;
45232;SDS011;30969;51.052;17.056;2023-04-30T06:51:48;14.07;;;6.10;;
45232;SDS011;30969;51.052;17.056;2023-04-30T06:56:53;9.38;;;6.40;;
45232;SDS011;30969;51.052;17.056;2023-04-30T07:01:57;11.63;;;6.05;;
45232;SDS011;30969;51.052;17.056;2023-04-30T07:07:00;13.48;;;6.72;;
45232;SDS011;30969;51.052;17.056;2023-04-30T07:12:05;9.38;;;6.43;;
45232;SDS011;30969;51.052;17.056;2023-04-30T07:17:09;12.13;;;6.05;;
45232;SDS011;30969;51.052;17.056;2023-04-30T07:27:42;17.42;;;11.98;;
45232;SDS011;30969;51.052;17.056;2023-04-30T07:32:46;13.07;;;6.63;;
45232;SDS011;30969;51.052;17.056;2023-04-30T07:37:51;11.32;;;5.18;;
45232;SDS011;30969;51.052;17.056;2023-04-30T07:42:56;11.93;;;4.75;;
45232;SDS011;30969;51.052;17.056;2023-04-30T07:47:59;11.02;;;5.47;;
45232;SDS011;30969;51.052;17.056;2023-04-30T07:53:03;10.10;;;5.38;;
45232;SDS011;30969;51.052;17.056;2023-04-30T07:58:11;12.23;;;4.95;;
45232;SDS011;30969;51.052;17.056;2023-04-30T08:03:14;7.30;;;4.55;;
45232;SDS011;30969;51.052;17.056;2023-04-30T08:08:20;8.48;;;4.47;;
45232;SDS011;30969;51.052;17.056;2023-04-30T08:13:25;7.50;;;4.00;;
45232;SDS011;30969;51.052;17.056;2023-04-30T08:18:29;6.95;;;3.55;;
45232;SDS011;30969;51.052;17.056;2023-04-30T08:23:33;7.10;;;4.18;;
45232;SDS011;30969;51.052;17.056;2023-04-30T08:28:38;8.65;;;4.20;;
45232;SDS011;30969;51.052;17.056;2023-04-30T08:33:41;9.73;;;4.07;;
45232;SDS011;30969;51.052;17.056;2023-04-30T08:38:45;7.43;;;3.47;;
45232;SDS011;30969;51.052;17.056;2023-04-30T08:43:50;6.97;;;3.40;;
45232;SDS011;30969;51.052;17.056;2023-04-30T08:48:55;8.45;;;4.20;;
45232;SDS011;30969;51.052;17.056;2023-04-30T08:53:59;7.60;;;3.85;;
45232;SDS011;30969;51.052;17.056;2023-04-30T08:59:04;8.45;;;3.20;;
45232;SDS011;30969;51.052;17.056;2023-04-30T09:04:07;6.82;;;3.70;;
45232;SDS011;30969;51.052;17.056;2023-04-30T09:09:12;7.88;;;3.60;;
45232;SDS011;30969;51.052;17.056;2023-04-30T09:14:22;10.82;;;3.42;;
45232;SDS011;30969;51.052;17.056;2023-04-30T09:19:28;7.07;;;3.22;;
45232;SDS011;30969;51.052;17.056;2023-04-30T09:24:44;8.18;;;2.78;;
45232;SDS011;30969;51.052;17.056;2023-04-30T09:29:50;10.65;;;5.55;;
45232;SDS011;30969;51.052;17.056;2023-04-30T09:34:54;4.63;;;2.60;;
45232;SDS011;30969;51.052;17.056;2023-04-30T09:39:58;3.40;;;2.00;;
45232;SDS011;30969;51.052;17.056;2023-04-30T09:45:04;6.72;;;2.55;;
45232;SDS011;30969;51.052;17.056;2023-04-30T09:50:09;8.00;;;2.78;;
45232;SDS011;30969;51.052;17.056;2023-04-30T09:55:15;7.35;;;3.50;;
45232;SDS011;30969;51.052;17.056;2023-04-30T10:00:21;5.88;;;3.00;;
45232;SDS011;30969;51.052;17.056;2023-04-30T10:05:25;7.25;;;2.80;;
45232;SDS011;30969;51.052;17.056;2023-04-30T10:10:29;4.82;;;2.22;;
45232;SDS011;30969;51.052;17.056;2023-04-30T10:15:37;7.53;;;3.25;;
45232;SDS011;30969;51.052;17.056;2023-04-30T10:20:42;7.55;;;3.20;;
45232;SDS011;30969;51.052;17.056;2023-04-30T10:25:49;5.40;;;2.45;;
45232;SDS011;30969;51.052;17.056;2023-04-30T10:30:54;6.45;;;2.40;;
45232;SDS011;30969;51.052;17.056;2023-04-30T10:36:00;4.20;;;2.70;;
45232;SDS011;30969;51.052;17.056;2023-04-30T10:41:07;8.30;;;2.70;;
45232;SDS011;30969;51.052;17.056;2023-04-30T10:46:12;9.88;;;3.50;;
45232;SDS011;30969;51.052;17.056;2023-04-30T10:51:25;10.43;;;5.22;;
45232;SDS011;30969;51.052;17.056;2023-04-30T10:56:47;8.48;;;2.88;;
45232;SDS011;30969;51.052;17.056;2023-04-30T11:01:55;9.68;;;2.47;;
45232;SDS011;30969;51.052;17.056;2023-04-30T11:07:09;7.07;;;2.45;;
45232;SDS011;30969;51.052;17.056;2023-04-30T11:12:13;4.22;;;2.10;;
45232;SDS011;30969;51.052;17.056;2023-04-30T11:17:22;5.20;;;2.45;;
45232;SDS011;30969;51.052;17.056;2023-04-30T11:22:27;4.47;;;2.03;;
45232;SDS011;30969;51.052;17.056;2023-04-30T11:27:37;5.03;;;1.95;;
45232;SDS011;30969;51.052;17.056;2023-04-30T11:32:45;8.32;;;1.85;;
45232;SDS011;30969;51.052;17.056;2023-04-30T11:37:53;5.78;;;1.95;;
45232;SDS011;30969;51.052;17.056;2023-04-30T11:42:57;5.63;;;1.95;;
45232;SDS011;30969;51.052;17.056;2023-04-30T11:48:03;3.65;;;1.77;;
45232;SDS011;30969;51.052;17.056;2023-04-30T11:53:08;6.72;;;2.45;;
45232;SDS011;30969;51.052;17.056;2023-04-30T11:58:12;5.80;;;1.73;;
45232;SDS011;30969;51.052;17.056;2023-04-30T12:03:17;6.80;;;2.20;;
45232;SDS011;30969;51.052;17.056;2023-04-30T12:08:20;4.55;;;1.70;;
45232;SDS011;30969;51.052;17.056;2023-04-30T12:13:24;4.93;;;2.75;;
45232;SDS011;30969;51.052;17.056;2023-04-30T12:18:29;4.63;;;1.50;;
45232;SDS011;30969;51.052;17.056;2023-04-30T12:23:35;2.58;;;1.60;;
45232;SDS011;30969;51.052;17.056;2023-04-30T12:28:39;3.97;;;1.42;;
45232;SDS011;30969;51.052;17.056;2023-04-30T12:33:46;4.70;;;1.80;;
45232;SDS011;30969;51.052;17.056;2023-04-30T12:44:16;7.28;;;1.80;;
45232;SDS011;30969;51.052;17.056;2023-04-30T12:49:23;5.53;;;1.70;;
45232;SDS011;30969;51.052;17.056;2023-04-30T12:54:28;9.02;;;3.22;;
45232;SDS011;30969;51.052;17.056;2023-04-30T12:59:35;3.72;;;1.33;;
45232;SDS011;30969;51.052;17.056;2023-04-30T13:04:42;3.65;;;1.70;;
45232;SDS011;30969;51.052;17.056;2023-04-30T13:09:46;6.30;;;1.52;;
45232;SDS011;30969;51.052;17.056;2023-04-30T13:14:50;6.63;;;1.90;;
45232;SDS011;30969;51.052;17.056;2023-04-30T13:19:54;4.18;;;1.42;;
45232;SDS011;30969;51.052;17.056;2023-04-30T13:24:58;6.15;;;1.58;;
45232;SDS011;30969;51.052;17.056;2023-04-30T13:30:02;2.85;;;1.65;;
45232;SDS011;30969;51.052;17.056;2023-04-30T13:35:08;4.20;;;1.65;;
45232;SDS011;30969;51.052;17.056;2023-04-30T13:40:12;3.80;;;1.55;;
45232;SDS011;30969;51.052;17.056;2023-04-30T13:45:16;5.65;;;1.60;;
45232;SDS011;30969;51.052;17.056;2023-04-30T13:50:22;3.88;;;1.50;;
45232;SDS011;30969;51.052;17.056;2023-04-30T13:55:25;5.18;;;1.65;;
45232;SDS011;30969;51.052;17.056;2023-04-30T14:00:29;7.28;;;1.85;;
45232;SDS011;30969;51.052;17.056;2023-04-30T14:05:34;3.25;;;1.85;;
45232;SDS011;30969;51.052;17.056;2023-04-30T14:10:38;6.35;;;1.95;;
45232;SDS011;30969;51.052;17.056;2023-04-30T14:15:41;5.13;;;1.98;;
45232;SDS011;30969;51.052;17.056;2023-04-30T14:20:46;4.35;;;2.08;;
45232;SDS011;30969;51.052;17.056;2023-04-30T14:25:50;5.95;;;2.20;;
45232;SDS011;30969;51.052;17.056;2023-04-30T14:30:54;3.33;;;1.52;;
45232;SDS011;30969;51.052;17.056;2023-04-30T14:35:59;4.20;;;1.20;;
45232;SDS011;30969;51.052;17.056;2023-04-30T14:41:03;3.70;;;1.38;;
45232;SDS011;30969;51.052;17.056;2023-04-30T14:46:07;3.30;;;1.60;;
45232;SDS011;30969;51.052;17.056;2023-04-30T14:51:14;4.90;;;1.30;;
45232;SDS011;30969;51.052;17.056;2023-04-30T14:56:17;4.28;;;1.45;;
45232;SDS011;30969;51.052;17.056;2023-04-30T15:01:21;3.55;;;1.30;;
45232;SDS011;30969;51.052;17.056;2023-04-30T15:06:28;3.70;;;1.73;;
45232;SDS011;30969;51.052;17.056;2023-04-30T15:11:32;3.53;;;1.60;;
45232;SDS011;30969;51.052;17.056;2023-04-30T15:16:35;4.43;;;1.42;;
45232;SDS011;30969;51.052;17.056;2023-04-30T15:21:41;3.85;;;1.38;;
45232;SDS011;30969;51.052;17.056;2023-04-30T15:26:47;4.00;;;1.77;;
45232;SDS011;30969;51.052;17.056;2023-04-30T15:31:52;4.03;;;1.40;;
45232;SDS011;30969;51.052;17.056;2023-04-30T15:36:57;5.50;;;1.83;;
45232;SDS011;30969;51.052;17.056;2023-04-30T15:42:00;6.38;;;1.60;;
45232;SDS011;30969;51.052;17.056;2023-04-30T15:47:04;3.60;;;1.77;;
45232;SDS011;30969;51.052;17.056;2023-04-30T15:52:09;5.57;;;2.03;;
45232;SDS011;30969;51.052;17.056;2023-04-30T15:57:13;3.42;;;1.60;;
45232;SDS011;30969;51.052;17.056;2023-04-30T16:02:16;2.75;;;1.38;;
45232;SDS011;30969;51.052;17.056;2023-04-30T16:07:21;4.95;;;1.40;;
45232;SDS011;30969;51.052;17.056;2023-04-30T16:12:25;4.28;;;1.80;;
45232;SDS011;30969;51.052;17.056;2023-04-30T16:17:28;5.85;;;1.95;;
45232;SDS011;30969;51.052;17.056;2023-04-30T16:22:34;12.38;;;2.15;;
45232;SDS011;30969;51.052;17.056;2023-04-30T16:27:38;4.93;;;1.73;;
45232;SDS011;30969;51.052;17.056;2023-04-30T16:32:41;6.82;;;1.90;;
45232;SDS011;30969;51.052;17.056;2023-04-30T16:37:47;2.45;;;1.42;;
45232;SDS011;30969;51.052;17.056;2023-04-30T16:42:50;7.32;;;1.65;;
45232;SDS011;30969;51.052;17.056;2023-04-30T16:47:54;9.95;;;1.90;;
45232;SDS011;30969;51.052;17.056;2023-04-30T16:52:59;5.10;;;1.90;;
45232;SDS011;30969;51.052;17.056;2023-04-30T16:58:05;5.10;;;2.00;;
45232;SDS011;30969;51.052;17.056;2023-04-30T17:03:09;5.90;;;2.63;;
45232;SDS011;30969;51.052;17.056;2023-04-30T17:08:14;6.57;;;2.30;;
45232;SDS011;30969;51.052;17.056;2023-04-30T17:13:18;5.13;;;1.98;;
45232;SDS011;30969;51.052;17.056;2023-04-30T17:18:21;8.15;;;1.90;;
45232;SDS011;30969;51.052;17.056;2023-04-30T17:23:26;7.28;;;2.70;;
45232;SDS011;30969;51.052;17.056;2023-04-30T17:28:31;8.98;;;3.28;;
45232;SDS011;30969;51.052;17.056;2023-04-30T17:33:34;5.85;;;2.90;;
45232;SDS011;30969;51.052;17.056;2023-04-30T17:38:40;6.43;;;1.92;;
45232;SDS011;30969;51.052;17.056;2023-04-30T17:43:43;3.83;;;1.98;;
45232;SDS011;30969;51.052;17.056;2023-04-30T17:48:47;6.82;;;2.53;;
45232;SDS011;30969;51.052;17.056;2023-04-30T17:53:51;6.53;;;3.25;;
45232;SDS011;30969;51.052;17.056;2023-04-30T17:58:56;6.55;;;2.78;;
45232;SDS011;30969;51.052;17.056;2023-04-30T18:04:00;7.70;;;2.67;;
45232;SDS011;30969;51.052;17.056;2023-04-30T18:09:05;7.05;;;3.63;;
45232;SDS011;30969;51.052;17.056;2023-04-30T18:14:09;9.55;;;5.00;;
45232;SDS011;30969;51.052;17.056;2023-04-30T18:19:13;7.72;;;4.35;;
45232;SDS011;30969;51.052;17.056;2023-04-30T18:24:20;7.85;;;4.82;;
45232;SDS011;30969;51.052;17.056;2023-04-30T18:29:28;13.02;;;6.00;;
45232;SDS011;30969;51.052;17.056;2023-04-30T18:34:31;15.50;;;8.13;;
45232;SDS011;30969;51.052;17.056;2023-04-30T18:39:36;23.80;;;10.00;;
45232;SDS011;30969;51.052;17.056;2023-04-30T18:44:40;15.68;;;8.27;;
45232;SDS011;30969;51.052;17.056;2023-04-30T18:49:44;14.88;;;8.90;;
45232;SDS011;30969;51.052;17.056;2023-04-30T18:54:49;15.38;;;9.10;;
45232;SDS011;30969;51.052;17.056;2023-04-30T18:59:53;23.13;;;12.45;;
45232;SDS011;30969;51.052;17.056;2023-04-30T19:04:57;19.58;;;11.25;;
45232;SDS011;30969;51.052;17.056;2023-04-30T19:10:02;12.50;;;7.32;;
45232;SDS011;30969;51.052;17.056;2023-04-30T19:15:06;15.07;;;6.05;;
45232;SDS011;30969;51.052;17.056;2023-04-30T19:20:12;13.18;;;6.45;;
45232;SDS011;30969;51.052;17.056;2023-04-30T19:25:18;16.65;;;9.55;;
45232;SDS011;30969;51.052;17.056;2023-04-30T19:30:21;17.42;;;7.97;;
45232;SDS011;30969;51.052;17.056;2023-04-30T19:35:25;13.98;;;7.35;;
45232;SDS011;30969;51.052;17.056;2023-04-30T19:40:30;20.38;;;10.45;;
45232;SDS011;30969;51.052;17.056;2023-04-30T19:45:33;16.92;;;10.10;;
45232;SDS011;30969;51.052;17.056;2023-04-30T19:50:38;17.73;;;9.25;;
45232;SDS011;30969;51.052;17.056;2023-04-30T19:55:44;17.13;;;10.88;;
45232;SDS011;30969;51.052;17.056;2023-04-30T20:00:48;20.52;;;11.15;;
45232;SDS011;30969;51.052;17.056;2023-04-30T20:05:51;24.40;;;11.90;;
45232;SDS011;30969;51.052;17.056;2023-04-30T20:10:56;19.58;;;11.18;;
45232;SDS011;30969;51.052;17.056;2023-04-30T20:16:02;15.95;;;9.82;;
45232;SDS011;30969;51.052;17.056;2023-04-30T20:21:06;16.73;;;10.13;;
45232;SDS011;30969;51.052;17.056;2023-04-30T20:26:12;16.38;;;8.13;;
45232;SDS011;30969;51.052;17.056;2023-04-30T20:31:15;16.05;;;9.68;;
45232;SDS011;30969;51.052;17.056;2023-04-30T20:36:19;15.82;;;8.40;;
45232;SDS011;30969;51.052;17.056;2023-04-30T20:41:24;14.75;;;9.30;;
45232;SDS011;30969;51.052;17.056;2023-04-30T20:46:29;16.38;;;8.52;;
45232;SDS011;30969;51.052;17.056;2023-04-30T20:51:35;13.93;;;8.95;;
45232;SDS011;30969;51.052;17.056;2023-04-30T20:56:41;15.10;;;8.27;;
45232;SDS011;30969;51.052;17.056;2023-04-30T21:01:47;15.25;;;7.95;;
45232;SDS011;30969;51.052;17.056;2023-04-30T21:06:51;21.45;;;10.10;;
45232;SDS011;30969;51.052;17.056;2023-04-30T21:11:56;30.23;;;13.38;;
45232;SDS011;30969;51.052;17.056;2023-04-30T21:17:00;36.88;;;16.27;;
45232;SDS011;30969;51.052;17.056;2023-04-30T21:22:04;49.40;;;18.55;;
45232;SDS011;30969;51.052;17.056;2023-04-30T21:27:08;44.67;;;19.05;;
45232;SDS011;30969;51.052;17.056;2023-04-30T21:32:12;50.40;;;20.73;;
45232;SDS011;30969;51.052;17.056;2023-04-30T21:37:16;54.20;;;21.00;;
45232;SDS011;30969;51.052;17.056;2023-04-30T21:42:20;47.13;;;20.70;;
45232;SDS011;30969;51.052;17.056;2023-04-30T21:47:24;39.67;;;19.48;;
45232;SDS011;30969;51.052;17.056;2023-04-30T21:52:27;45.47;;;19.85;;
45232;SDS011;30969;51.052;17.056;2023-04-30T21:57:33;51.33;;;21.75;;
45232;SDS011;30969;51.052;17.056;2023-04-30T22:02:37;57.15;;;22.90;;
45232;SDS011;30969;51.052;17.056;2023-04-30T22:07:41;53.58;;;20.02;;
45232;SDS011;30969;51.052;17.056;2023-04-30T22:12:46;52.10;;;21.02;;
45232;SDS011;30969;51.052;17.056;2023-04-30T22:17:49;47.53;;;19.40;;
45232;SDS011;30969;51.052;17.056;2023-04-30T22:22:53;38.75;;;19.48;;
45232;SDS011;30969;51.052;17.056;2023-04-30T22:27:58;46.55;;;19.80;;
